Time;durP1;ratioP1;P1;durP2;ratioP2;P2;SDS_P1;SDS_P2;PMS_P1;PMS_P2;Temp;Humidity;BMP_temperature;BMP_pressure;BME280_temperature;BME280_humidity;BME280_pressure;Samples;Min_cycle;Max_cycle;Signal;HPM_P1;HPM_P2
2022/05/24 00:00:43;;;;;;;5.68;3.75;;;;;;;;;;8312900;28;20109;-59
2022/05/24 00:04:43;;;;;;;5.15;3.78;;;;;;;;;;8314046;28;20504;-59
2022/05/24 00:08:44;;;;;;;7.53;3.78;;;;;;;;;;8311007;28;20029;-59
2022/05/24 00:12:45;;;;;;;5.50;3.40;;;;;;;;;;8313190;28;20521;-58
2022/05/24 00:16:45;;;;;;;4.50;3.63;;;;;;;;;;8312978;28;20406;-59
2022/05/24 00:20:47;;;;;;;3.90;3.40;;;;;;;;;;8310787;28;20032;-58
2022/05/24 00:24:47;;;;;;;4.10;3.38;;;;;;;;;;8313745;28;20032;-59
2022/05/24 00:28:47;;;;;;;4.83;3.70;;;;;;;;;;8310935;28;20026;-59
2022/05/24 00:32:48;;;;;;;3.88;3.35;;;;;;;;;;8313715;28;20071;-58
2022/05/24 00:36:48;;;;;;;3.17;2.97;;;;;;;;;;8314568;28;20028;-59
2022/05/24 00:41:08;;;;;;;5.72;3.47;;;;;;;;;;8310048;28;20287;-59
2022/05/24 00:45:17;;;;;;;4.25;3.75;;;;;;;;;;8311137;28;20771;-59
2022/05/24 00:49:22;;;;;;;4.55;3.50;;;;;;;;;;8312435;28;20025;-58
2022/05/24 00:53:25;;;;;;;3.92;3.00;;;;;;;;;;8309418;28;20545;-58
2022/05/24 00:57:36;;;;;;;4.20;3.30;;;;;;;;;;8310612;28;20345;-58
2022/05/24 01:01:41;;;;;;;7.32;3.22;;;;;;;;;;8310864;28;20057;-57
2022/05/24 01:05:43;;;;;;;5.30;3.22;;;;;;;;;;8310579;28;20098;-58
2022/05/24 01:09:45;;;;;;;4.70;3.13;;;;;;;;;;8312149;28;20021;-58
2022/05/24 01:13:45;;;;;;;3.50;3.17;;;;;;;;;;8308038;28;20036;-58
2022/05/24 01:17:46;;;;;;;4.25;3.70;;;;;;;;;;8310730;28;20034;-59
2022/05/24 01:21:47;;;;;;;4.05;3.65;;;;;;;;;;8310327;28;20108;-58
2022/05/24 01:25:57;;;;;;;4.15;3.50;;;;;;;;;;8310056;28;20020;-58
2022/05/24 01:29:57;;;;;;;6.78;4.07;;;;;;;;;;8310432;28;20441;-58
2022/05/24 01:38:21;;;;;;;5.90;4.05;;;;;;;;;;8306149;28;20039;-59
2022/05/24 01:42:22;;;;;;;4.60;4.20;;;;;;;;;;8309790;28;20930;-59
2022/05/24 01:46:29;;;;;;;4.80;4.20;;;;;;;;;;8308999;28;20911;-59
2022/05/24 01:50:30;;;;;;;5.97;4.10;;;;;;;;;;8308393;28;20033;-58
2022/05/24 01:54:32;;;;;;;6.15;4.47;;;;;;;;;;8308487;28;20096;-57
2022/05/24 01:58:35;;;;;;;4.90;4.43;;;;;;;;;;8307675;28;20457;-57
2022/05/24 02:02:36;;;;;;;5.05;3.85;;;;;;;;;;8307533;28;20621;-59
2022/05/24 02:06:36;;;;;;;7.22;3.92;;;;;;;;;;8307996;28;20028;-57
2022/05/24 02:10:43;;;;;;;5.38;4.80;;;;;;;;;;8308384;28;20033;-59
2022/05/24 02:14:46;;;;;;;5.15;4.18;;;;;;;;;;8307408;28;20534;-57
2022/05/24 02:18:47;;;;;;;6.05;5.45;;;;;;;;;;8308287;28;20050;-57
2022/05/24 02:22:48;;;;;;;6.82;5.95;;;;;;;;;;8309468;28;20021;-58
2022/05/24 02:26:48;;;;;;;8.80;5.35;;;;;;;;;;8307628;28;20123;-57
2022/05/24 02:30:51;;;;;;;8.70;5.75;;;;;;;;;;8308068;28;20037;-57
2022/05/24 02:34:51;;;;;;;5.82;5.30;;;;;;;;;;8308294;28;20050;-58
2022/05/24 02:38:52;;;;;;;7.07;5.50;;;;;;;;;;8306501;28;20056;-57
2022/05/24 02:42:52;;;;;;;11.48;5.13;;;;;;;;;;8305597;28;20517;-58
2022/05/24 02:46:52;;;;;;;5.23;4.73;;;;;;;;;;8306087;28;20175;-57
2022/05/24 02:50:53;;;;;;;6.25;4.95;;;;;;;;;;8306905;28;20394;-58
2022/05/24 02:54:53;;;;;;;5.90;5.10;;;;;;;;;;8306324;28;20021;-57
2022/05/24 02:58:53;;;;;;;5.13;4.63;;;;;;;;;;8307169;28;20020;-57
2022/05/24 03:02:54;;;;;;;5.95;4.63;;;;;;;;;;8306656;28;20048;-59
2022/05/24 03:11:13;;;;;;;9.80;4.93;;;;;;;;;;8305719;28;20032;-58
2022/05/24 03:15:13;;;;;;;6.18;4.88;;;;;;;;;;8305124;28;20367;-59
2022/05/24 03:19:14;;;;;;;8.52;5.10;;;;;;;;;;8308245;28;20026;-57
2022/05/24 03:23:14;;;;;;;6.13;5.18;;;;;;;;;;8303332;28;20124;-57
2022/05/24 03:27:15;;;;;;;8.15;5.07;;;;;;;;;;8305808;28;20998;-58
2022/05/24 03:31:16;;;;;;;6.25;4.15;;;;;;;;;;8305560;28;20500;-59
2022/05/24 03:35:16;;;;;;;6.28;3.95;;;;;;;;;;8305523;28;20725;-58
2022/05/24 03:39:16;;;;;;;4.28;3.88;;;;;;;;;;8305511;28;20036;-58
2022/05/24 03:43:16;;;;;;;4.15;3.75;;;;;;;;;;8305540;28;20552;-58
2022/05/24 03:47:17;;;;;;;6.10;3.13;;;;;;;;;;8305675;28;20863;-57
2022/05/24 03:51:17;;;;;;;3.77;3.03;;;;;;;;;;8307772;28;20076;-57
2022/05/24 03:55:17;;;;;;;8.73;2.72;;;;;;;;;;8305091;28;20025;-58
2022/05/24 03:59:17;;;;;;;6.18;2.63;;;;;;;;;;8302654;28;20033;-58
2022/05/24 04:03:18;;;;;;;2.58;2.38;;;;;;;;;;8306272;28;20037;-58
2022/05/24 04:07:18;;;;;;;3.15;2.20;;;;;;;;;;8306338;28;20031;-59
2022/05/24 04:11:18;;;;;;;4.38;1.85;;;;;;;;;;8306390;28;20021;-58
2022/05/24 04:15:19;;;;;;;2.25;1.50;;;;;;;;;;8306874;28;20897;-59
2022/05/24 04:19:19;;;;;;;1.60;1.30;;;;;;;;;;8305661;28;20115;-59
2022/05/24 04:23:21;;;;;;;3.72;1.27;;;;;;;;;;8303835;28;20057;-58
2022/05/24 04:27:22;;;;;;;5.53;1.20;;;;;;;;;;8305138;28;20544;-58
2022/05/24 04:31:22;;;;;;;1.45;1.00;;;;;;;;;;8309234;28;20039;-64
2022/05/24 04:35:23;;;;;;;1.35;1.00;;;;;;;;;;8313212;28;20052;-58
2022/05/24 04:39:23;;;;;;;2.92;1.10;;;;;;;;;;8309363;28;20021;-58
2022/05/24 04:43:23;;;;;;;1.67;1.00;;;;;;;;;;8312098;28;20029;-58
2022/05/24 04:47:25;;;;;;;1.45;1.17;;;;;;;;;;8307120;28;20149;-60
2022/05/24 04:51:25;;;;;;;1.42;1.10;;;;;;;;;;8310439;28;20040;-59
2022/05/24 04:55:26;;;;;;;4.90;1.00;;;;;;;;;;8312116;28;20021;-59
2022/05/24 04:59:27;;;;;;;1.10;1.00;;;;;;;;;;8309471;28;20040;-59
2022/05/24 05:03:27;;;;;;;1.60;0.98;;;;;;;;;;8309154;28;21039;-59
2022/05/24 05:07:27;;;;;;;2.65;1.10;;;;;;;;;;8309350;28;20638;-59
2022/05/24 05:11:28;;;;;;;2.30;1.10;;;;;;;;;;8310843;28;20187;-60
2022/05/24 05:15:28;;;;;;;4.10;1.40;;;;;;;;;;8309230;28;20856;-58
2022/05/24 05:19:28;;;;;;;2.10;0.90;;;;;;;;;;8310084;28;20059;-59
2022/05/24 05:23:29;;;;;;;1.13;0.90;;;;;;;;;;8309620;28;20430;-58
2022/05/24 05:27:30;;;;;;;1.90;0.80;;;;;;;;;;8307132;28;20760;-60
2022/05/24 05:31:30;;;;;;;5.68;1.08;;;;;;;;;;8306919;28;20440;-59
2022/05/24 05:35:30;;;;;;;2.30;0.90;;;;;;;;;;8309253;28;20025;-58
2022/05/24 05:39:31;;;;;;;2.72;0.80;;;;;;;;;;8309430;28;20024;-58
2022/05/24 05:43:31;;;;;;;1.13;0.70;;;;;;;;;;8307748;28;20032;-58
2022/05/24 05:47:31;;;;;;;1.25;0.73;;;;;;;;;;8308315;28;20276;-58
2022/05/24 05:51:31;;;;;;;0.60;0.55;;;;;;;;;;8309711;28;20074;-58
2022/05/24 05:55:32;;;;;;;0.60;0.60;;;;;;;;;;8309620;28;20026;-59
2022/05/24 05:59:32;;;;;;;1.35;0.55;;;;;;;;;;8306943;28;20024;-58
2022/05/24 06:03:32;;;;;;;1.27;0.60;;;;;;;;;;8307359;28;20046;-58
2022/05/24 06:07:32;;;;;;;1.02;0.60;;;;;;;;;;8306596;28;20028;-58
2022/05/24 06:11:33;;;;;;;1.58;0.70;;;;;;;;;;8304599;28;20041;-58
2022/05/24 06:15:33;;;;;;;1.67;0.80;;;;;;;;;;8304764;28;20033;-58
2022/05/24 06:19:33;;;;;;;2.20;0.95;;;;;;;;;;8306408;28;20025;-58
2022/05/24 06:23:34;;;;;;;1.48;0.88;;;;;;;;;;8304281;28;20025;-59
2022/05/24 06:27:34;;;;;;;0.60;0.60;;;;;;;;;;8305790;28;20057;-59
2022/05/24 06:31:34;;;;;;;3.50;0.68;;;;;;;;;;8304136;28;20037;-60
2022/05/24 06:35:36;;;;;;;3.80;0.85;;;;;;;;;;8303662;28;20065;-58
2022/05/24 06:39:36;;;;;;;0.82;0.70;;;;;;;;;;8305583;28;20018;-59
2022/05/24 06:43:36;;;;;;;2.47;0.87;;;;;;;;;;8308035;28;20025;-60
2022/05/24 06:47:38;;;;;;;8.00;1.00;;;;;;;;;;8305656;28;20088;-59
2022/05/24 06:51:38;;;;;;;2.30;0.95;;;;;;;;;;8306159;28;20279;-59
2022/05/24 06:55:38;;;;;;;1.67;0.90;;;;;;;;;;8306262;28;20108;-58
2022/05/24 07:03:57;;;;;;;5.75;1.00;;;;;;;;;;8306433;28;20144;-59
2022/05/24 07:07:59;;;;;;;1.90;1.00;;;;;;;;;;8303865;28;20025;-59
2022/05/24 07:11:59;;;;;;;1.33;0.95;;;;;;;;;;8301713;28;20020;-58
2022/05/24 07:15:59;;;;;;;0.88;0.80;;;;;;;;;;8303357;28;20556;-59
2022/05/24 07:19:59;;;;;;;4.18;1.00;;;;;;;;;;8304443;28;20124;-59
2022/05/24 07:24:00;;;;;;;1.42;0.88;;;;;;;;;;8306149;28;20036;-58
2022/05/24 07:28:00;;;;;;;1.95;1.15;;;;;;;;;;8302265;28;20025;-59
2022/05/24 07:32:00;;;;;;;0.95;0.80;;;;;;;;;;8301269;28;20064;-59
2022/05/24 07:36:00;;;;;;;2.42;0.80;;;;;;;;;;8303365;28;20032;-59
2022/05/24 07:48:39;;;;;;;1.67;0.80;;;;;;;;;;8302547;28;20044;-59
2022/05/24 07:52:39;;;;;;;1.90;0.70;;;;;;;;;;8306001;28;20033;-58
2022/05/24 07:56:39;;;;;;;0.65;0.50;;;;;;;;;;8303652;28;20053;-59
2022/05/24 08:00:39;;;;;;;3.78;0.60;;;;;;;;;;8304762;28;20506;-59
2022/05/24 08:04:40;;;;;;;1.02;0.60;;;;;;;;;;8303672;28;20052;-60
2022/05/24 08:08:40;;;;;;;0.82;0.40;;;;;;;;;;8309803;28;20025;-59
2022/05/24 08:12:40;;;;;;;1.35;0.50;;;;;;;;;;8307935;28;20036;-59
2022/05/24 08:16:41;;;;;;;0.40;0.40;;;;;;;;;;8311987;28;20029;-60
2022/05/24 08:20:41;;;;;;;2.70;0.60;;;;;;;;;;8311315;28;20283;-59
2022/05/24 08:24:41;;;;;;;0.85;0.60;;;;;;;;;;8308186;28;20021;-59
2022/05/24 08:28:43;;;;;;;1.70;0.60;;;;;;;;;;8310076;28;20026;-59
2022/05/24 08:32:43;;;;;;;0.80;0.50;;;;;;;;;;8308626;28;20033;-59
2022/05/24 08:36:44;;;;;;;0.50;0.50;;;;;;;;;;8309020;28;20021;-61
2022/05/24 08:40:45;;;;;;;1.33;0.52;;;;;;;;;;8309667;28;20079;-60
2022/05/24 08:49:13;;;;;;;0.60;0.60;;;;;;;;;;8310172;28;20071;-59
2022/05/24 08:53:16;;;;;;;0.80;0.65;;;;;;;;;;8304719;28;20025;-59
2022/05/24 08:57:17;;;;;;;;;;;;;;;;;;8307210;28;20021;-60
2022/05/24 09:01:25;;;;;;;1.05;0.50;;;;;;;;;;8305137;28;19944;-58
2022/05/24 09:05:30;;;;;;;0.82;0.60;;;;;;;;;;8307527;28;20818;-59
2022/05/24 09:09:53;;;;;;;0.95;0.60;;;;;;;;;;8305789;28;20030;-59
2022/05/24 09:13:53;;;;;;;2.42;0.60;;;;;;;;;;8304482;28;20111;-60
2022/05/24 09:17:59;;;;;;;0.63;0.60;;;;;;;;;;8307639;28;20036;-60
2022/05/24 09:22:03;;;;;;;0.95;0.50;;;;;;;;;;8302376;28;20912;-59
2022/05/24 09:26:20;;;;;;;0.65;0.50;;;;;;;;;;8309634;28;20087;-59
2022/05/24 09:30:26;;;;;;;3.78;0.63;;;;;;;;;;8305067;28;20281;-60
2022/05/24 09:34:33;;;;;;;1.63;0.80;;;;;;;;;;8304792;28;20033;-59
2022/05/24 09:38:34;;;;;;;6.20;0.70;;;;;;;;;;8314485;28;20037;-59
2022/05/24 09:42:36;;;;;;;1.50;0.50;;;;;;;;;;8306624;28;20043;-59
2022/05/24 09:46:36;;;;;;;0.85;0.60;;;;;;;;;;8303109;28;20541;-59
2022/05/24 09:50:38;;;;;;;1.70;0.50;;;;;;;;;;8301845;28;20036;-60
2022/05/24 09:55:00;;;;;;;2.05;0.50;;;;;;;;;;8301207;28;20018;-59
2022/05/24 09:59:02;;;;;;;2.65;0.60;;;;;;;;;;8300945;28;20064;-59
2022/05/24 10:03:06;;;;;;;0.77;0.52;;;;;;;;;;8300768;28;20181;-59
2022/05/24 10:07:08;;;;;;;0.95;0.70;;;;;;;;;;8299881;28;20074;-60
2022/05/24 10:11:15;;;;;;;3.85;0.70;;;;;;;;;;8300009;28;20048;-59
2022/05/24 10:15:21;;;;;;;1.45;0.60;;;;;;;;;;8300399;28;20314;-60
2022/05/24 10:19:30;;;;;;;1.13;0.63;;;;;;;;;;8300488;28;20029;-59
2022/05/24 10:23:48;;;;;;;2.40;0.57;;;;;;;;;;8299581;28;20029;-59
2022/05/24 10:27:55;;;;;;;1.40;0.73;;;;;;;;;;8299209;28;20036;-59
2022/05/24 10:32:07;;;;;;;5.05;1.70;;;;;;;;;;8300766;28;20866;-59
2022/05/24 10:41:07;;;;;;;2.50;0.70;;;;;;;;;;8299991;28;20028;-59
2022/05/24 10:45:10;;;;;;;2.05;0.60;;;;;;;;;;8298883;28;20329;-60
2022/05/24 10:49:28;;;;;;;1.80;0.70;;;;;;;;;;8298471;28;20028;-60
2022/05/24 10:53:36;;;;;;;1.08;0.60;;;;;;;;;;8296140;28;20498;-59
2022/05/24 10:57:42;;;;;;;1.65;0.50;;;;;;;;;;8300480;28;20467;-59
2022/05/24 11:01:51;;;;;;;4.43;0.70;;;;;;;;;;8301697;28;20040;-60
2022/05/24 11:05:57;;;;;;;2.97;0.60;;;;;;;;;;8301026;28;20673;-59
2022/05/24 11:10:09;;;;;;;2.13;0.70;;;;;;;;;;8305622;28;20075;-59
2022/05/24 11:14:33;;;;;;;3.40;0.50;;;;;;;;;;8306360;28;20115;-59
2022/05/24 11:18:33;;;;;;;1.83;0.60;;;;;;;;;;8305902;28;20037;-59
2022/05/24 11:22:46;;;;;;;2.15;0.55;;;;;;;;;;8308213;28;20029;-58
2022/05/24 11:26:53;;;;;;;0.80;0.60;;;;;;;;;;8307439;28;20115;-59
2022/05/24 11:30:55;;;;;;;2.20;0.60;;;;;;;;;;8303396;28;20049;-58
2022/05/24 11:34:58;;;;;;;3.72;1.00;;;;;;;;;;8309355;28;20509;-64
2022/05/24 11:39:05;;;;;;;2.85;0.60;;;;;;;;;;8309440;28;20537;-58
2022/05/24 11:43:31;;;;;;;2.53;0.75;;;;;;;;;;8311866;28;20025;-58
2022/05/24 11:47:35;;;;;;;0.85;0.57;;;;;;;;;;8310280;28;20033;-59
2022/05/24 11:51:38;;;;;;;2.33;0.75;;;;;;;;;;8313416;28;20037;-58
2022/05/24 11:55:57;;;;;;;1.40;0.88;;;;;;;;;;8312121;28;20040;-58
2022/05/24 11:59:57;;;;;;;1.55;0.70;;;;;;;;;;8311189;28;20029;-58
2022/05/24 12:08:25;;;;;;;4.35;0.80;;;;;;;;;;8313878;28;20056;-60
2022/05/24 12:12:36;;;;;;;1.75;0.80;;;;;;;;;;8314901;28;20065;-58
2022/05/24 12:16:55;;;;;;;2.38;0.80;;;;;;;;;;8311765;28;20040;-57
2022/05/24 12:20:56;;;;;;;1.85;0.80;;;;;;;;;;8311796;28;21105;-58
2022/05/24 12:24:58;;;;;;;1.58;0.60;;;;;;;;;;8309891;28;20534;-59
2022/05/24 12:28:59;;;;;;;1.90;0.60;;;;;;;;;;8308760;28;20017;-58
2022/05/24 12:33:26;;;;;;;1.23;0.63;;;;;;;;;;8311484;28;20136;-59
2022/05/24 12:37:30;;;;;;;2.22;0.75;;;;;;;;;;8298424;28;21210;-59
2022/05/24 12:41:34;;;;;;;4.45;0.80;;;;;;;;;;8310902;28;20029;-59
2022/05/24 12:45:38;;;;;;;2.75;0.70;;;;;;;;;;8310759;28;20411;-59
2022/05/24 12:49:47;;;;;;;1.10;0.60;;;;;;;;;;8311299;28;20883;-59
2022/05/24 12:53:50;;;;;;;1.20;0.70;;;;;;;;;;8311188;28;21110;-59
2022/05/24 12:57:50;;;;;;;4.20;0.70;;;;;;;;;;8312143;28;20396;-59
2022/05/24 13:01:50;;;;;;;4.40;0.70;;;;;;;;;;8310511;28;20194;-59
2022/05/24 13:05:54;;;;;;;3.43;0.70;;;;;;;;;;8311293;28;20032;-59
2022/05/24 13:09:54;;;;;;;2.50;0.60;;;;;;;;;;8307189;28;20032;-59
2022/05/24 13:13:55;;;;;;;4.75;0.80;;;;;;;;;;8311787;28;20021;-59
2022/05/24 13:17:58;;;;;;;4.27;0.60;;;;;;;;;;8309537;28;20537;-59
2022/05/24 13:21:59;;;;;;;1.90;0.68;;;;;;;;;;8308871;28;20072;-59
2022/05/24 13:26:05;;;;;;;2.95;0.70;;;;;;;;;;8310854;28;20028;-59
2022/05/24 13:34:24;;;;;;;1.90;0.80;;;;;;;;;;8309268;28;20539;-59
2022/05/24 13:38:26;;;;;;;1.02;0.70;;;;;;;;;;8308369;28;20017;-59
2022/05/24 13:42:28;;;;;;;1.70;0.60;;;;;;;;;;8308512;28;20047;-61
2022/05/24 13:46:28;;;;;;;2.60;0.60;;;;;;;;;;8306828;28;20110;-60
2022/05/24 13:50:41;;;;;;;3.92;0.80;;;;;;;;;;8308044;28;20033;-59
2022/05/24 13:54:41;;;;;;;;;;;;;;;;;;8308169;28;20025;-59
2022/05/24 13:58:46;;;;;;;1.30;0.57;;;;;;;;;;8305978;28;19990;-59
2022/05/24 14:02:52;;;;;;;0.65;0.60;;;;;;;;;;8303474;28;20041;-59
2022/05/24 14:06:54;;;;;;;0.82;0.55;;;;;;;;;;8306725;28;20025;-59
2022/05/24 14:10:54;;;;;;;0.85;0.65;;;;;;;;;;8306578;28;20792;-59
2022/05/24 14:14:54;;;;;;;1.10;0.60;;;;;;;;;;8305779;28;20025;-59
2022/05/24 14:18:54;;;;;;;1.38;0.77;;;;;;;;;;8305968;28;20037;-59
2022/05/24 14:22:54;;;;;;;3.22;1.02;;;;;;;;;;8306032;28;20060;-59
2022/05/24 14:26:56;;;;;;;3.10;0.80;;;;;;;;;;8306748;28;20021;-59
2022/05/24 14:30:57;;;;;;;4.43;0.63;;;;;;;;;;8303515;28;20360;-59
2022/05/24 14:34:57;;;;;;;2.55;0.60;;;;;;;;;;8305489;28;20024;-59
2022/05/24 14:38:58;;;;;;;1.23;0.70;;;;;;;;;;8302875;28;21025;-60
2022/05/24 14:42:58;;;;;;;2.75;0.60;;;;;;;;;;8306483;28;20473;-59
2022/05/24 14:46:58;;;;;;;4.13;0.70;;;;;;;;;;8304334;28;20067;-59
2022/05/24 14:50:59;;;;;;;1.23;0.70;;;;;;;;;;8303883;28;20546;-59
2022/05/24 14:55:00;;;;;;;2.50;0.88;;;;;;;;;;8305602;28;20032;-59
2022/05/24 14:59:01;;;;;;;1.55;0.60;;;;;;;;;;8305369;28;20029;-59
2022/05/24 15:03:03;;;;;;;0.82;0.70;;;;;;;;;;8302823;28;20041;-59
2022/05/24 15:15:45;;;;;;;5.20;0.88;;;;;;;;;;8297408;28;20079;-59
2022/05/24 15:19:45;;;;;;;1.33;0.60;;;;;;;;;;8300677;28;20382;-59
2022/05/24 15:23:47;;;;;;;1.75;0.80;;;;;;;;;;8298775;28;20745;-58
2022/05/24 15:27:47;;;;;;;4.10;0.60;;;;;;;;;;8295240;28;20543;-59
2022/05/24 15:31:48;;;;;;;2.22;0.60;;;;;;;;;;8295009;28;20042;-59
2022/05/24 15:35:48;;;;;;;1.65;0.60;;;;;;;;;;8296202;28;20202;-59
2022/05/24 15:39:48;;;;;;;1.83;0.60;;;;;;;;;;8295001;28;20091;-59
2022/05/24 15:43:49;;;;;;;1.17;0.60;;;;;;;;;;8296537;28;20048;-59
2022/05/24 15:47:49;;;;;;;3.05;0.60;;;;;;;;;;8295591;28;20423;-59
2022/05/24 15:51:49;;;;;;;2.42;0.73;;;;;;;;;;8296244;28;20071;-59
2022/05/24 15:55:49;;;;;;;1.40;0.70;;;;;;;;;;8294371;28;20488;-59
2022/05/24 15:59:50;;;;;;;0.98;0.60;;;;;;;;;;8294237;28;20032;-59
2022/05/24 16:03:50;;;;;;;1.70;0.77;;;;;;;;;;8295773;28;20765;-59
2022/05/24 16:12:11;;;;;;;0.73;0.60;;;;;;;;;;8295360;28;22355;-59
2022/05/24 16:16:11;;;;;;;2.25;0.60;;;;;;;;;;8295444;28;20029;-59
2022/05/24 16:20:11;;;;;;;1.93;0.60;;;;;;;;;;8297569;28;20025;-59
2022/05/24 16:24:12;;;;;;;3.15;1.00;;;;;;;;;;8295254;28;20870;-59
2022/05/24 16:28:13;;;;;;;3.72;0.90;;;;;;;;;;8302385;28;20500;-59
2022/05/24 16:32:14;;;;;;;2.95;0.80;;;;;;;;;;8300788;28;20489;-60
2022/05/24 16:36:15;;;;;;;4.15;1.02;;;;;;;;;;8302760;28;20145;-59
2022/05/24 16:40:15;;;;;;;1.38;0.65;;;;;;;;;;8301874;28;20048;-58
2022/05/24 16:44:16;;;;;;;4.03;0.95;;;;;;;;;;8302165;28;20028;-59
2022/05/24 16:48:16;;;;;;;2.05;0.65;;;;;;;;;;8302269;28;20430;-59
2022/05/24 16:52:16;;;;;;;1.27;0.70;;;;;;;;;;8301603;28;20131;-59
2022/05/24 17:00:35;;;;;;;3.30;0.88;;;;;;;;;;8298966;28;20040;-58
2022/05/24 17:04:37;;;;;;;5.13;0.70;;;;;;;;;;8301244;28;20028;-59
2022/05/24 17:08:37;;;;;;;1.98;0.80;;;;;;;;;;8300890;28;20029;-60
2022/05/24 17:12:38;;;;;;;0.90;0.70;;;;;;;;;;8300002;28;20041;-58
2022/05/24 17:16:38;;;;;;;1.00;0.68;;;;;;;;;;8300048;28;20037;-58
2022/05/24 17:20:39;;;;;;;1.58;0.70;;;;;;;;;;8300348;28;20146;-59
2022/05/24 17:24:39;;;;;;;2.05;0.75;;;;;;;;;;8299470;28;20086;-58
2022/05/24 17:28:40;;;;;;;0.60;0.60;;;;;;;;;;8298562;28;20378;-59
2022/05/24 17:32:48;;;;;;;1.67;0.70;;;;;;;;;;8304359;28;20789;-59
2022/05/24 17:36:48;;;;;;;1.83;0.80;;;;;;;;;;8306769;28;20094;-60
2022/05/24 17:40:50;;;;;;;0.98;0.57;;;;;;;;;;8307838;28;20033;-59
2022/05/24 17:44:51;;;;;;;0.77;0.60;;;;;;;;;;8308230;28;20453;-59
2022/05/24 17:48:51;;;;;;;2.28;0.70;;;;;;;;;;8307768;28;20040;-59
2022/05/24 17:52:51;;;;;;;2.42;0.60;;;;;;;;;;8307151;28;20025;-60
2022/05/24 17:56:52;;;;;;;1.97;0.60;;;;;;;;;;8306735;28;20025;-59
2022/05/24 18:00:52;;;;;;;0.50;0.50;;;;;;;;;;8307659;28;20117;-58
2022/05/24 18:04:52;;;;;;;2.72;0.63;;;;;;;;;;8308848;28;20025;-59
2022/05/24 18:08:53;;;;;;;1.67;0.50;;;;;;;;;;8306611;28;20017;-59
2022/05/24 18:12:54;;;;;;;1.30;0.50;;;;;;;;;;8305348;28;20309;-59
2022/05/24 18:16:55;;;;;;;0.45;0.45;;;;;;;;;;8306863;28;20033;-60
2022/05/24 18:20:56;;;;;;;1.88;0.60;;;;;;;;;;8303755;28;20020;-58
2022/05/24 18:25:02;;;;;;;2.97;0.50;;;;;;;;;;8307379;28;20033;-59
2022/05/24 18:33:27;;;;;;;2.00;0.60;;;;;;;;;;8305377;28;20099;-59
2022/05/24 18:37:27;;;;;;;2.72;0.70;;;;;;;;;;8306514;28;20113;-59
2022/05/24 18:41:28;;;;;;;3.47;0.65;;;;;;;;;;8306692;28;20052;-59
2022/05/24 18:45:28;;;;;;;1.40;0.60;;;;;;;;;;8303196;28;20535;-59
2022/05/24 18:49:28;;;;;;;0.63;0.53;;;;;;;;;;8303988;28;20025;-60
2022/05/24 18:53:28;;;;;;;2.17;0.60;;;;;;;;;;8304848;28;20279;-60
2022/05/24 18:57:29;;;;;;;0.40;0.40;;;;;;;;;;8304526;28;20279;-59
2022/05/24 19:01:29;;;;;;;2.07;0.67;;;;;;;;;;8302027;28;20049;-58
2022/05/24 19:05:30;;;;;;;1.90;0.60;;;;;;;;;;8305483;28;20286;-59
2022/05/24 19:09:30;;;;;;;3.15;0.60;;;;;;;;;;8304773;28;20078;-59
2022/05/24 19:13:30;;;;;;;1.05;0.52;;;;;;;;;;8302659;28;20026;-59
2022/05/24 19:17:32;;;;;;;2.55;0.60;;;;;;;;;;8302665;28;20033;-58
2022/05/24 19:21:32;;;;;;;0.70;0.70;;;;;;;;;;8303645;28;20079;-60
2022/05/24 19:25:32;;;;;;;6.40;0.80;;;;;;;;;;8303032;28;20136;-58
2022/05/24 19:29:33;;;;;;;0.60;0.60;;;;;;;;;;8304042;28;20032;-59
2022/05/24 19:33:34;;;;;;;0.82;0.55;;;;;;;;;;8303165;28;20044;-58
2022/05/24 19:37:35;;;;;;;2.35;0.90;;;;;;;;;;8303768;28;20031;-59
2022/05/24 19:41:42;;;;;;;1.55;0.80;;;;;;;;;;8301691;28;20398;-58
2022/05/24 19:45:47;;;;;;;1.80;0.73;;;;;;;;;;8293995;28;20044;-59
2022/05/24 19:49:47;;;;;;;2.55;0.80;;;;;;;;;;8294321;28;20045;-59
2022/05/24 19:53:48;;;;;;;0.80;0.70;;;;;;;;;;8290316;28;20457;-59
2022/05/24 19:57:48;;;;;;;1.20;0.80;;;;;;;;;;8294770;28;20013;-58
2022/05/24 20:01:48;;;;;;;1.58;0.60;;;;;;;;;;8298699;28;20127;-58
2022/05/24 20:05:48;;;;;;;5.30;0.75;;;;;;;;;;8302402;28;20057;-59
2022/05/24 20:09:48;;;;;;;2.45;0.60;;;;;;;;;;8301790;28;20034;-58
2022/05/24 20:13:49;;;;;;;0.75;0.60;;;;;;;;;;8299690;28;20783;-58
2022/05/24 20:17:49;;;;;;;2.72;0.70;;;;;;;;;;8300793;28;20136;-59
2022/05/24 20:21:49;;;;;;;3.92;0.60;;;;;;;;;;8300317;28;20056;-58
2022/05/24 20:25:50;;;;;;;0.60;0.60;;;;;;;;;;8299628;28;20037;-58
2022/05/24 20:29:51;;;;;;;0.93;0.60;;;;;;;;;;8300198;28;20657;-58
2022/05/24 20:33:51;;;;;;;1.60;0.60;;;;;;;;;;8298590;28;20076;-58
2022/05/24 20:37:52;;;;;;;2.22;0.70;;;;;;;;;;8300337;28;20025;-58
2022/05/24 20:41:52;;;;;;;2.38;0.60;;;;;;;;;;8302574;28;20036;-59
2022/05/24 20:45:52;;;;;;;1.17;0.73;;;;;;;;;;8309899;28;20064;-58
2022/05/24 20:49:52;;;;;;;1.50;0.60;;;;;;;;;;8308961;28;20079;-59
2022/05/24 20:53:53;;;;;;;0.60;0.60;;;;;;;;;;8312051;28;20091;-58
2022/05/24 20:57:53;;;;;;;1.10;0.80;;;;;;;;;;8310511;28;20036;-59
2022/05/24 21:01:54;;;;;;;1.70;0.70;;;;;;;;;;8305100;28;20048;-58
2022/05/24 21:05:55;;;;;;;3.45;0.70;;;;;;;;;;8307856;28;20103;-60
2022/05/24 21:09:55;;;;;;;1.88;0.70;;;;;;;;;;8310711;28;20105;-60
2022/05/24 21:13:55;;;;;;;0.85;0.60;;;;;;;;;;8307237;28;20048;-59
2022/05/24 21:17:56;;;;;;;0.60;0.60;;;;;;;;;;8309514;28;20152;-60
2022/05/24 21:21:56;;;;;;;0.57;0.50;;;;;;;;;;8307645;28;20029;-60
2022/05/24 21:30:16;;;;;;;1.10;0.60;;;;;;;;;;8296552;28;20036;-58
2022/05/24 21:34:16;;;;;;;1.87;0.60;;;;;;;;;;8299127;28;20029;-58
2022/05/24 21:38:17;;;;;;;1.13;0.57;;;;;;;;;;8298023;28;20107;-58
2022/05/24 21:42:17;;;;;;;2.28;0.90;;;;;;;;;;8296029;28;20516;-58
2022/05/24 21:46:18;;;;;;;2.53;1.02;;;;;;;;;;8299617;28;20179;-58
2022/05/24 21:50:18;;;;;;;1.00;1.00;;;;;;;;;;8300649;28;20398;-58
2022/05/24 21:54:18;;;;;;;0.70;0.60;;;;;;;;;;8299655;28;20837;-59
2022/05/24 21:58:19;;;;;;;0.85;0.60;;;;;;;;;;8297418;28;20371;-59
2022/05/24 22:02:19;;;;;;;0.65;0.60;;;;;;;;;;8302177;28;20127;-58
2022/05/24 22:06:24;;;;;;;1.20;0.70;;;;;;;;;;8300590;28;20435;-58
2022/05/24 22:10:24;;;;;;;0.50;0.50;;;;;;;;;;8302004;28;20764;-58
2022/05/24 22:14:26;;;;;;;2.33;0.80;;;;;;;;;;8300190;28;20061;-58
2022/05/24 22:18:26;;;;;;;3.70;0.80;;;;;;;;;;8299803;28;20157;-58
2022/05/24 22:22:27;;;;;;;0.70;0.70;;;;;;;;;;8298641;28;20064;-58
2022/05/24 22:26:27;;;;;;;0.95;0.80;;;;;;;;;;8300777;28;20044;-58
2022/05/24 22:30:27;;;;;;;0.60;0.57;;;;;;;;;;8302881;28;20168;-59
2022/05/24 22:34:27;;;;;;;1.63;0.70;;;;;;;;;;8300929;28;20017;-58
2022/05/24 22:38:28;;;;;;;0.65;0.65;;;;;;;;;;8299054;28;20439;-58
2022/05/24 22:42:28;;;;;;;0.75;0.75;;;;;;;;;;8298608;28;20043;-59
2022/05/24 22:46:29;;;;;;;0.95;0.60;;;;;;;;;;8298853;28;20049;-58
2022/05/24 22:50:30;;;;;;;0.70;0.70;;;;;;;;;;8305045;28;20029;-58
2022/05/24 22:54:31;;;;;;;1.42;0.80;;;;;;;;;;8304582;28;20557;-58
2022/05/24 22:58:34;;;;;;;1.75;0.70;;;;;;;;;;8302877;28;20028;-58
2022/05/24 23:02:34;;;;;;;0.52;0.52;;;;;;;;;;8303945;28;20041;-59
2022/05/24 23:06:34;;;;;;;0.60;0.60;;;;;;;;;;8305222;28;20675;-59
2022/05/24 23:10:35;;;;;;;0.63;0.60;;;;;;;;;;8304909;28;20021;-58
2022/05/24 23:14:35;;;;;;;0.50;0.50;;;;;;;;;;8303115;28;20033;-58
2022/05/24 23:18:35;;;;;;;1.85;0.80;;;;;;;;;;8304983;28;20045;-59
2022/05/24 23:22:37;;;;;;;0.70;0.70;;;;;;;;;;8308061;28;20021;-58
2022/05/24 23:26:40;;;;;;;1.55;0.70;;;;;;;;;;8302129;28;20064;-59
2022/05/24 23:30:41;;;;;;;1.73;0.70;;;;;;;;;;8302356;28;20500;-59
2022/05/24 23:34:41;;;;;;;4.03;0.70;;;;;;;;;;8308926;28;20144;-58
2022/05/24 23:38:41;;;;;;;0.70;0.70;;;;;;;;;;8312918;28;20053;-58
2022/05/24 23:42:41;;;;;;;3.20;0.77;;;;;;;;;;8315606;28;20024;-59
2022/05/24 23:46:42;;;;;;;3.03;0.80;;;;;;;;;;8314159;28;20032;-58
2022/05/24 23:50:43;;;;;;;1.35;0.68;;;;;;;;;;8317068;28;20286;-59
2022/05/24 23:54:43;;;;;;;1.23;0.70;;;;;;;;;;8315736;28;20029;-58
2022/05/24 23:58:43;;;;;;;0.70;0.70;;;;;;;;;;8313560;28;20053;-58
